Summary for KCOGRAND2

Redlands, Southcamp Road & Dakota Circle, Grand Junction, CO 81507
Join the PWSweather.com Network
View data in metric units
Latest Conditions
Updated 2:08:00 PM MDT Saturday, Apr 19, 2014
Data Currently Today's Max Today's Min Today's Average
Temperature 56.1°F13.4°C 64.0°F17.8°C 50.2°F10.1°C 55.9°F13.3°C
Dew Point 49.3°F9.6°C 50.9°F10.5°C 6.6°F-14.1°C 37.0°F2.8°C
Winds 4.0 mph ESE6.4 kmh ESE 12.0 mph ESE19.3 kmh ESE CalmCalm 4.7 mph7.6 kmh
Wind Gusts 5.4 mph8.7 kmh 21.5 mph34.6 kmh -- 7.8 mph12.6 kmh
Humidity 78% 90% 11% 58%
Pressure 25.10 in850.0 mb 25.13 in851.0 mb 24.98 in845.9 mb 25.07 in849.0 mb
Precipitation 0.00 in0.0 mm - - 0.00 in0.0 mm
Trends
 
Station Profile
Redlands, Southcamp Road & Dakota CircleGrand Junction, CO 81507

Lat: 39.055, Lon: -108.637
Elevation: 4870
Station Type: RadioShack WX200

Detailed Summary for Sat, Apr 19, 2014
Hour (MDT) Temperature Dew Point Humidity Winds Wind Gusts Pressure Precip Precip Rate Daily Precip Total
02:08 PM 56.1°F13.4°C 49.3°F9.6°C 78% 4.0 mph ESE6.4 kmh ESE 5.4 mph8.7 kmh 25.10 in850.0 mb 0.00 in0.0 mm 0.00 in/hr0.0 mm/hr 0.00 in0.0 mm
02:03 PM 55.9°F13.3°C 49.5°F9.7°C 79% 4.0 mph SE6.4 kmh SE 7.4 mph11.9 kmh 25.10 in850.0 mb 0.00 in0.0 mm 0.00 in/hr0.0 mm/hr 0.00 in0.0 mm
01:58 PM 55.6°F13.1°C 50.2°F10.1°C 82% 5.0 mph SSE8.0 kmh SSE 9.2 mph14.8 kmh 25.10 in850.0 mb 0.00 in0.0 mm 0.00 in/hr0.0 mm/hr 0.00 in0.0 mm
01:53 PM 55.6°F13.1°C 50.9°F10.5°C 84% 6.0 mph SSE9.7 kmh SSE 8.7 mph14.0 kmh 25.10 in850.0 mb 0.00 in0.0 mm 0.00 in/hr0.0 mm/hr 0.00 in0.0 mm
01:48 PM 54.7°F12.6°C 50.2°F10.1°C 85% 6.0 mph S9.7 kmh S 9.6 mph15.4 kmh 25.10 in850.0 mb 0.00 in0.0 mm 0.00 in/hr0.0 mm/hr 0.00 in0.0 mm
01:43 PM 53.4°F11.9°C 48.0°F8.9°C 82% 6.0 mph S9.7 kmh S 7.8 mph12.6 kmh 25.10 in850.0 mb 0.00 in0.0 mm 0.00 in/hr0.0 mm/hr 0.00 in0.0 mm
01:38 PM 54.1°F12.3°C 48.4°F9.1°C 81% 7.0 mph SE11.3 kmh SE 8.3 mph13.4 kmh 25.10 in850.0 mb 0.00 in0.0 mm 0.00 in/hr0.0 mm/hr 0.00 in0.0 mm
01:33 PM 54.1°F12.3°C 46.4°F8.0°C 75% 8.0 mph SE12.9 kmh SE 11.6 mph18.7 kmh 25.10 in850.0 mb 0.00 in0.0 mm 0.00 in/hr0.0 mm/hr 0.00 in0.0 mm
01:28 PM 55.0°F12.8°C 46.2°F7.9°C 72% 9.0 mph SSE14.5 kmh SSE 13.4 mph21.6 kmh 25.10 in850.0 mb 0.00 in0.0 mm 0.00 in/hr0.0 mm/hr 0.00 in0.0 mm
01:22 PM 55.6°F13.1°C 46.8°F8.2°C 72% 9.0 mph S14.5 kmh S 13.0 mph20.9 kmh 25.10 in850.0 mb 0.00 in0.0 mm 0.00 in/hr0.0 mm/hr 0.00 in0.0 mm
01:17 PM 55.6°F13.1°C 45.5°F7.5°C 69% 7.0 mph S11.3 kmh S 14.3 mph23.0 kmh 25.10 in850.0 mb 0.00 in0.0 mm 0.00 in/hr0.0 mm/hr 0.00 in0.0 mm
01:12 PM 56.5°F13.6°C 45.3°F7.4°C 66% 5.0 mph S8.0 kmh S 10.5 mph16.9 kmh 25.10 in850.0 mb 0.00 in0.0 mm 0.00 in/hr0.0 mm/hr 0.00 in0.0 mm
01:07 PM 55.9°F13.3°C 43.9°F6.6°C 64% 5.0 mph S8.0 kmh S 8.7 mph14.0 kmh 25.10 in850.0 mb 0.00 in0.0 mm 0.00 in/hr0.0 mm/hr 0.00 in0.0 mm
01:02 PM 55.9°F13.3°C 47.1°F8.4°C 72% 5.0 mph S8.0 kmh S 7.8 mph12.6 kmh 25.10 in850.0 mb 0.00 in0.0 mm 0.00 in/hr0.0 mm/hr 0.00 in0.0 mm
12:57 PM 55.8°F13.2°C 47.7°F8.7°C 74% 5.0 mph SSE8.0 kmh SSE 7.4 mph11.9 kmh 25.10 in850.0 mb 0.00 in0.0 mm 0.00 in/hr0.0 mm/hr 0.00 in0.0 mm
12:52 PM 55.0°F12.8°C 46.6°F8.1°C 73% 5.0 mph S8.0 kmh S 7.4 mph11.9 kmh 25.10 in850.0 mb 0.00 in0.0 mm 0.00 in/hr0.0 mm/hr 0.00 in0.0 mm
12:47 PM 55.2°F12.9°C 47.5°F8.6°C 75% 4.0 mph S6.4 kmh S 8.7 mph14.0 kmh 25.10 in850.0 mb 0.00 in0.0 mm 0.00 in/hr0.0 mm/hr 0.00 in0.0 mm
12:42 PM 55.9°F13.3°C 50.2°F10.1°C 81% 3.0 mph SSE4.8 kmh SSE 8.3 mph13.4 kmh 25.10 in850.0 mb 0.00 in0.0 mm 0.00 in/hr0.0 mm/hr 0.00 in0.0 mm
12:37 PM 54.9°F12.7°C 49.1°F9.5°C 81% 4.0 mph SE6.4 kmh SE 6.3 mph10.1 kmh 25.10 in850.0 mb 0.00 in0.0 mm 0.00 in/hr0.0 mm/hr 0.00 in0.0 mm
12:32 PM 54.5°F12.5°C 49.1°F9.5°C 82% 4.0 mph SE6.4 kmh SE 8.7 mph14.0 kmh 25.10 in850.0 mb 0.00 in0.0 mm 0.00 in/hr0.0 mm/hr 0.00 in0.0 mm
12:27 PM 54.3°F12.4°C 49.6°F9.8°C 84% 4.0 mph ESE6.4 kmh ESE 7.4 mph11.9 kmh 25.10 in850.0 mb 0.00 in0.0 mm 0.00 in/hr0.0 mm/hr 0.00 in0.0 mm
12:22 PM 53.6°F12.0°C 49.3°F9.6°C 85% 4.0 mph SE6.4 kmh SE 6.9 mph11.1 kmh 25.10 in850.0 mb 0.00 in0.0 mm 0.00 in/hr0.0 mm/hr 0.00 in0.0 mm
12:17 PM 53.8°F12.1°C 49.6°F9.8°C 86% 5.0 mph SE8.0 kmh SE 7.4 mph11.9 kmh 25.13 in851.0 mb 0.00 in0.0 mm 0.00 in/hr0.0 mm/hr 0.00 in0.0 mm
12:12 PM 53.1°F11.7°C 48.7°F9.3°C 85% 6.0 mph SE9.7 kmh SE 7.4 mph11.9 kmh 25.13 in851.0 mb 0.00 in0.0 mm 0.00 in/hr0.0 mm/hr 0.00 in0.0 mm
12:07 PM 53.4°F11.9°C 49.1°F9.5°C 85% 6.0 mph SSE9.7 kmh SSE 7.8 mph12.6 kmh 25.13 in851.0 mb 0.00 in0.0 mm 0.00 in/hr0.0 mm/hr 0.00 in0.0 mm
12:02 PM 53.8°F12.1°C 49.1°F9.5°C 84% 6.0 mph SSE9.7 kmh SSE 8.7 mph14.0 kmh 25.13 in851.0 mb 0.00 in0.0 mm 0.00 in/hr0.0 mm/hr 0.00 in0.0 mm
11:57 AM 54.0°F12.2°C 48.2°F9.0°C 81% 6.0 mph SSE9.7 kmh SSE 9.2 mph14.8 kmh 25.13 in851.0 mb 0.00 in0.0 mm 0.00 in/hr0.0 mm/hr 0.00 in0.0 mm
11:52 AM 54.5°F12.5°C 48.7°F9.3°C 81% 5.0 mph SSE8.0 kmh SSE 9.2 mph14.8 kmh 25.13 in851.0 mb 0.00 in0.0 mm 0.00 in/hr0.0 mm/hr 0.00 in0.0 mm
11:47 AM 54.5°F12.5°C 46.0°F7.8°C 73% 4.0 mph SSE6.4 kmh SSE 6.9 mph11.1 kmh 25.13 in851.0 mb 0.00 in0.0 mm 0.00 in/hr0.0 mm/hr 0.00 in0.0 mm
11:42 AM 54.1°F12.3°C 46.4°F8.0°C 75% 5.0 mph SSE8.0 kmh SSE 7.4 mph11.9 kmh 25.13 in851.0 mb 0.00 in0.0 mm 0.00 in/hr0.0 mm/hr 0.00 in0.0 mm
11:37 AM 54.0°F12.2°C 46.6°F8.1°C 76% 5.0 mph S8.0 kmh S 9.6 mph15.4 kmh 25.13 in851.0 mb 0.00 in0.0 mm 0.00 in/hr0.0 mm/hr 0.00 in0.0 mm
11:32 AM 54.3°F12.4°C 47.3°F8.5°C 77% 5.0 mph S8.0 kmh S 6.9 mph11.1 kmh 25.13 in851.0 mb 0.00 in0.0 mm 0.00 in/hr0.0 mm/hr 0.00 in0.0 mm
11:27 AM 54.1°F12.3°C 47.8°F8.8°C 79% 6.0 mph S9.7 kmh S 8.7 mph14.0 kmh 25.13 in851.0 mb 0.00 in0.0 mm 0.00 in/hr0.0 mm/hr 0.00 in0.0 mm
11:22 AM 54.7°F12.6°C 48.6°F9.2°C 80% 5.0 mph S8.0 kmh S 10.5 mph16.9 kmh 25.13 in851.0 mb 0.00 in0.0 mm 0.00 in/hr0.0 mm/hr 0.00 in0.0 mm
11:17 AM 53.8°F12.1°C 48.0°F8.9°C 81% 5.0 mph S8.0 kmh S 7.4 mph11.9 kmh 25.13 in851.0 mb 0.00 in0.0 mm 0.00 in/hr0.0 mm/hr 0.00 in0.0 mm
11:12 AM 53.6°F12.0°C 48.6°F9.2°C 83% 6.0 mph SSW9.7 kmh SSW 7.8 mph12.6 kmh 25.13 in851.0 mb 0.00 in0.0 mm 0.00 in/hr0.0 mm/hr 0.00 in0.0 mm
11:07 AM 52.9°F11.6°C 47.8°F8.8°C 83% 6.0 mph SSW9.7 kmh SSW 8.7 mph14.0 kmh 25.13 in851.0 mb 0.00 in0.0 mm 0.00 in/hr0.0 mm/hr 0.00 in0.0 mm
11:02 AM 53.1°F11.7°C 48.9°F9.4°C 86% 6.0 mph S9.7 kmh S 8.3 mph13.4 kmh 25.13 in851.0 mb 0.00 in0.0 mm 0.00 in/hr0.0 mm/hr 0.00 in0.0 mm
10:57 AM 52.0°F11.1°C 48.2°F9.0°C 87% 6.0 mph S9.7 kmh S 8.3 mph13.4 kmh 25.13 in851.0 mb 0.00 in0.0 mm 0.00 in/hr0.0 mm/hr 0.00 in0.0 mm
10:52 AM 52.0°F11.1°C 48.6°F9.2°C 88% 6.0 mph S9.7 kmh S 10.5 mph16.9 kmh 25.13 in851.0 mb 0.00 in0.0 mm 0.00 in/hr0.0 mm/hr 0.00 in0.0 mm
10:47 AM 52.5°F11.4°C 49.6°F9.8°C 90% 6.0 mph S9.7 kmh S 9.2 mph14.8 kmh 25.13 in851.0 mb 0.00 in0.0 mm 0.00 in/hr0.0 mm/hr 0.00 in0.0 mm
10:42 AM 51.8°F11.0°C 48.9°F9.4°C 90% 5.0 mph S8.0 kmh S 8.3 mph13.4 kmh 25.13 in851.0 mb 0.00 in0.0 mm 0.00 in/hr0.0 mm/hr 0.00 in0.0 mm
10:37 AM 51.8°F11.0°C 48.9°F9.4°C 90% 5.0 mph S8.0 kmh S 7.4 mph11.9 kmh 25.13 in851.0 mb 0.00 in0.0 mm 0.00 in/hr0.0 mm/hr 0.00 in0.0 mm
10:32 AM 51.4°F10.8°C 48.6°F9.2°C 90% 5.0 mph S8.0 kmh S 6.9 mph11.1 kmh 25.13 in851.0 mb 0.00 in0.0 mm 0.00 in/hr0.0 mm/hr 0.00 in0.0 mm
10:27 AM 51.4°F10.8°C 48.6°F9.2°C 90% 5.0 mph S8.0 kmh S 7.8 mph12.6 kmh 25.13 in851.0 mb 0.00 in0.0 mm 0.00 in/hr0.0 mm/hr 0.00 in0.0 mm
10:22 AM 51.4°F10.8°C 48.6°F9.2°C 90% 5.0 mph S8.0 kmh S 7.4 mph11.9 kmh 25.13 in851.0 mb 0.00 in0.0 mm 0.00 in/hr0.0 mm/hr 0.00 in0.0 mm
10:17 AM 51.3°F10.7°C 48.4°F9.1°C 90% 6.0 mph S9.7 kmh S 7.8 mph12.6 kmh 25.13 in851.0 mb 0.00 in0.0 mm 0.00 in/hr0.0 mm/hr 0.00 in0.0 mm
10:12 AM 51.1°F10.6°C 48.2°F9.0°C 90% 6.0 mph S9.7 kmh S 7.8 mph12.6 kmh 25.13 in851.0 mb 0.00 in0.0 mm 0.00 in/hr0.0 mm/hr 0.00 in0.0 mm
10:07 AM 51.1°F10.6°C 48.2°F9.0°C 90% 6.0 mph S9.7 kmh S 8.7 mph14.0 kmh 25.13 in851.0 mb 0.00 in0.0 mm 0.00 in/hr0.0 mm/hr 0.00 in0.0 mm
10:02 AM 51.1°F10.6°C 48.2°F9.0°C 90% 6.0 mph S9.7 kmh S 8.7 mph14.0 kmh 25.13 in851.0 mb 0.00 in0.0 mm 0.00 in/hr0.0 mm/hr 0.00 in0.0 mm
09:57 AM 51.3°F10.7°C 48.4°F9.1°C 90% 5.0 mph S8.0 kmh S 7.4 mph11.9 kmh 25.13 in851.0 mb 0.00 in0.0 mm 0.00 in/hr0.0 mm/hr 0.00 in0.0 mm
09:52 AM 51.3°F10.7°C 48.4°F9.1°C 90% 4.0 mph S6.4 kmh S 7.8 mph12.6 kmh 25.13 in851.0 mb 0.00 in0.0 mm 0.00 in/hr0.0 mm/hr 0.00 in0.0 mm
09:47 AM 51.3°F10.7°C 48.4°F9.1°C 90% 4.0 mph S6.4 kmh S 6.9 mph11.1 kmh 25.13 in851.0 mb 0.00 in0.0 mm 0.00 in/hr0.0 mm/hr 0.00 in0.0 mm
09:42 AM 51.3°F10.7°C 48.4°F9.1°C 90% 5.0 mph S8.0 kmh S 7.4 mph11.9 kmh 25.13 in851.0 mb 0.00 in0.0 mm 0.00 in/hr0.0 mm/hr 0.00 in0.0 mm
09:37 AM 50.7°F10.4°C 47.8°F8.8°C 90% 5.0 mph SSW8.0 kmh SSW 7.8 mph12.6 kmh 25.13 in851.0 mb 0.00 in0.0 mm 0.00 in/hr0.0 mm/hr 0.00 in0.0 mm
09:32 AM 50.5°F10.3°C 47.7°F8.7°C 90% 5.0 mph SSW8.0 kmh SSW 6.7 mph10.8 kmh 25.13 in851.0 mb 0.00 in0.0 mm 0.00 in/hr0.0 mm/hr 0.00 in0.0 mm
09:27 AM 50.4°F10.2°C 47.5°F8.6°C 90% 5.0 mph SSW8.0 kmh SSW 6.9 mph11.1 kmh 25.13 in851.0 mb 0.00 in0.0 mm 0.00 in/hr0.0 mm/hr 0.00 in0.0 mm
09:22 AM 50.9°F10.5°C 48.0°F8.9°C 90% 4.0 mph SW6.4 kmh SW 6.7 mph10.8 kmh 25.13 in851.0 mb 0.00 in0.0 mm 0.00 in/hr0.0 mm/hr 0.00 in0.0 mm
09:17 AM 50.4°F10.2°C 47.5°F8.6°C 90% 4.0 mph WSW6.4 kmh WSW 6.9 mph11.1 kmh 25.10 in850.0 mb 0.00 in0.0 mm 0.00 in/hr0.0 mm/hr 0.00 in0.0 mm
09:12 AM 50.4°F10.2°C 47.5°F8.6°C 90% 3.0 mph WSW4.8 kmh WSW 5.8 mph9.3 kmh 25.10 in850.0 mb 0.00 in0.0 mm 0.00 in/hr0.0 mm/hr 0.00 in0.0 mm
09:07 AM 50.4°F10.2°C 47.3°F8.5°C 89% 3.0 mph WSW4.8 kmh WSW 4.9 mph7.9 kmh 25.10 in850.0 mb 0.00 in0.0 mm 0.00 in/hr0.0 mm/hr 0.00 in0.0 mm
09:02 AM 50.4°F10.2°C 46.9°F8.3°C 88% 3.0 mph WSW4.8 kmh WSW 4.0 mph6.4 kmh 25.10 in850.0 mb 0.00 in0.0 mm 0.00 in/hr0.0 mm/hr 0.00 in0.0 mm
08:57 AM 50.5°F10.3°C 46.8°F8.2°C 87% 3.0 mph WSW4.8 kmh WSW 4.5 mph7.2 kmh 25.10 in850.0 mb 0.00 in0.0 mm 0.00 in/hr0.0 mm/hr 0.00 in0.0 mm
08:52 AM 50.2°F10.1°C 46.2°F7.9°C 86% 3.0 mph SW4.8 kmh SW 4.9 mph7.9 kmh 25.10 in850.0 mb 0.00 in0.0 mm 0.00 in/hr0.0 mm/hr 0.00 in0.0 mm
08:47 AM 50.4°F10.2°C 46.4°F8.0°C 86% 2.0 mph S3.2 kmh S 4.5 mph7.2 kmh 25.10 in850.0 mb 0.00 in0.0 mm 0.00 in/hr0.0 mm/hr 0.00 in0.0 mm
08:42 AM 50.4°F10.2°C 46.0°F7.8°C 85% 1.0 mph S1.6 kmh S 4.0 mph6.4 kmh 25.10 in850.0 mb 0.00 in0.0 mm 0.00 in/hr0.0 mm/hr 0.00 in0.0 mm
08:37 AM 50.4°F10.2°C 46.0°F7.8°C 85% Calm Calm 3.1 mph5.0 kmh 25.10 in850.0 mb 0.00 in0.0 mm 0.00 in/hr0.0 mm/hr 0.00 in0.0 mm
08:32 AM 50.5°F10.3°C 46.6°F8.1°C 86% Calm Calm 2.7 mph4.3 kmh 25.10 in850.0 mb 0.00 in0.0 mm 0.00 in/hr0.0 mm/hr 0.00 in0.0 mm
08:27 AM 50.7°F10.4°C 46.8°F8.2°C 86% Calm Calm 2.7 mph4.3 kmh 25.10 in850.0 mb 0.00 in0.0 mm 0.00 in/hr0.0 mm/hr 0.00 in0.0 mm
08:22 AM 50.5°F10.3°C 46.6°F8.1°C 86% Calm Calm -- 25.10 in850.0 mb 0.00 in0.0 mm 0.00 in/hr0.0 mm/hr 0.00 in0.0 mm
08:17 AM 50.4°F10.2°C 46.4°F8.0°C 86% 1.0 mph S1.6 kmh S 3.1 mph5.0 kmh 25.10 in850.0 mb 0.00 in0.0 mm 0.00 in/hr0.0 mm/hr 0.00 in0.0 mm
08:12 AM 50.4°F10.2°C 46.0°F7.8°C 85% Calm Calm 2.7 mph4.3 kmh 25.10 in850.0 mb 0.00 in0.0 mm 0.00 in/hr0.0 mm/hr 0.00 in0.0 mm
08:07 AM 50.7°F10.4°C 46.0°F7.8°C 84% Calm Calm 3.1 mph5.0 kmh 25.10 in850.0 mb 0.00 in0.0 mm 0.00 in/hr0.0 mm/hr 0.00 in0.0 mm
08:02 AM 50.5°F10.3°C 45.9°F7.7°C 84% Calm Calm -- 25.10 in850.0 mb 0.00 in0.0 mm 0.00 in/hr0.0 mm/hr 0.00 in0.0 mm
07:57 AM 50.5°F10.3°C 45.9°F7.7°C 84% Calm Calm 2.7 mph4.3 kmh 25.10 in850.0 mb 0.00 in0.0 mm 0.00 in/hr0.0 mm/hr 0.00 in0.0 mm
07:52 AM 50.5°F10.3°C 45.5°F7.5°C 83% 1.0 mph S1.6 kmh S 3.1 mph5.0 kmh 25.10 in850.0 mb 0.00 in0.0 mm 0.00 in/hr0.0 mm/hr 0.00 in0.0 mm
07:47 AM 50.7°F10.4°C 45.5°F7.5°C 82% 4.0 mph S6.4 kmh S 5.4 mph8.7 kmh 25.10 in850.0 mb 0.00 in0.0 mm 0.00 in/hr0.0 mm/hr 0.00 in0.0 mm
07:42 AM 50.9°F10.5°C 45.0°F7.2°C 80% 6.0 mph SSW9.7 kmh SSW 7.8 mph12.6 kmh 25.10 in850.0 mb 0.00 in0.0 mm 0.00 in/hr0.0 mm/hr 0.00 in0.0 mm
07:37 AM 51.1°F10.6°C 43.7°F6.5°C 76% 7.0 mph SSW11.3 kmh SSW 8.7 mph14.0 kmh 25.10 in850.0 mb 0.00 in0.0 mm 0.00 in/hr0.0 mm/hr 0.00 in0.0 mm
07:32 AM 51.4°F10.8°C 43.2°F6.2°C 73% 8.0 mph SSW12.9 kmh SSW 11.0 mph17.7 kmh 25.10 in850.0 mb 0.00 in0.0 mm 0.00 in/hr0.0 mm/hr 0.00 in0.0 mm
07:27 AM 52.2°F11.2°C 42.3°F5.7°C 69% 8.0 mph SSW12.9 kmh SSW 13.9 mph22.4 kmh 25.10 in850.0 mb 0.00 in0.0 mm 0.00 in/hr0.0 mm/hr 0.00 in0.0 mm
07:22 AM 53.4°F11.9°C 39.4°F4.1°C 59% 6.0 mph SSW9.7 kmh SSW 10.5 mph16.9 kmh 25.10 in850.0 mb 0.00 in0.0 mm 0.00 in/hr0.0 mm/hr 0.00 in0.0 mm
07:17 AM 54.0°F12.2°C 38.1°F3.4°C 55% 6.0 mph SE9.7 kmh SE 11.2 mph18.0 kmh 25.07 in849.0 mb 0.00 in0.0 mm 0.00 in/hr0.0 mm/hr 0.00 in0.0 mm
07:12 AM 54.7°F12.6°C 37.4°F3.0°C 52% 5.0 mph E8.0 kmh E 7.4 mph11.9 kmh 25.07 in849.0 mb 0.00 in0.0 mm 0.00 in/hr0.0 mm/hr 0.00 in0.0 mm
07:07 AM 54.7°F12.6°C 36.9°F2.7°C 51% 5.0 mph E8.0 kmh E 7.8 mph12.6 kmh 25.07 in849.0 mb 0.00 in0.0 mm 0.00 in/hr0.0 mm/hr 0.00 in0.0 mm
07:02 AM 54.7°F12.6°C 36.9°F2.7°C 51% 5.0 mph E8.0 kmh E 7.8 mph12.6 kmh 25.07 in849.0 mb 0.00 in0.0 mm 0.00 in/hr0.0 mm/hr 0.00 in0.0 mm
06:57 AM 54.5°F12.5°C 37.2°F2.9°C 52% 4.0 mph E6.4 kmh E 6.9 mph11.1 kmh 25.07 in849.0 mb 0.00 in0.0 mm 0.00 in/hr0.0 mm/hr 0.00 in0.0 mm
06:52 AM 54.3°F12.4°C 38.1°F3.4°C 54% 4.0 mph E6.4 kmh E 5.8 mph9.3 kmh 25.07 in849.0 mb 0.00 in0.0 mm 0.00 in/hr0.0 mm/hr 0.00 in0.0 mm
06:47 AM 54.1°F12.3°C 38.3°F3.5°C 55% 2.0 mph E3.2 kmh E 5.8 mph9.3 kmh 25.07 in849.0 mb 0.00 in0.0 mm 0.00 in/hr0.0 mm/hr 0.00 in0.0 mm
06:41 AM 53.8°F12.1°C 39.4°F4.1°C 58% 2.0 mph ESE3.2 kmh ESE 3.6 mph5.8 kmh 25.07 in849.0 mb 0.00 in0.0 mm 0.00 in/hr0.0 mm/hr 0.00 in0.0 mm
06:36 AM 53.4°F11.9°C 39.4°F4.1°C 59% 1.0 mph SE1.6 kmh SE 4.9 mph7.9 kmh 25.07 in849.0 mb 0.00 in0.0 mm 0.00 in/hr0.0 mm/hr 0.00 in0.0 mm
06:31 AM 53.2°F11.8°C 39.7°F4.3°C 60% Calm Calm 4.5 mph7.2 kmh 25.07 in849.0 mb 0.00 in0.0 mm 0.00 in/hr0.0 mm/hr 0.00 in0.0 mm
06:26 AM 52.9°F11.6°C 39.4°F4.1°C 60% Calm Calm -- 25.07 in849.0 mb 0.00 in0.0 mm 0.00 in/hr0.0 mm/hr 0.00 in0.0 mm
06:21 AM 52.7°F11.5°C 39.6°F4.2°C 61% Calm Calm -- 25.07 in849.0 mb 0.00 in0.0 mm 0.00 in/hr0.0 mm/hr 0.00 in0.0 mm
06:16 AM 52.9°F11.6°C 40.3°F4.6°C 62% 2.0 mph SSE3.2 kmh SSE 3.1 mph5.0 kmh 25.04 in848.0 mb 0.00 in0.0 mm 0.00 in/hr0.0 mm/hr 0.00 in0.0 mm
06:11 AM 53.1°F11.7°C 39.9°F4.4°C 61% 4.0 mph S6.4 kmh S 5.4 mph8.7 kmh 25.04 in848.0 mb 0.00 in0.0 mm 0.00 in/hr0.0 mm/hr 0.00 in0.0 mm
06:06 AM 53.2°F11.8°C 39.2°F4.0°C 59% 5.0 mph S8.0 kmh S 5.8 mph9.3 kmh 25.04 in848.0 mb 0.00 in0.0 mm 0.00 in/hr0.0 mm/hr 0.00 in0.0 mm
06:01 AM 53.2°F11.8°C 38.5°F3.6°C 57% 6.0 mph S9.7 kmh S 8.3 mph13.4 kmh 25.07 in849.0 mb 0.00 in0.0 mm 0.00 in/hr0.0 mm/hr 0.00 in0.0 mm
05:56 AM 53.4°F11.9°C 38.1°F3.4°C 56% 7.0 mph S11.3 kmh S 9.2 mph14.8 kmh 25.07 in849.0 mb 0.00 in0.0 mm 0.00 in/hr0.0 mm/hr 0.00 in0.0 mm
05:51 AM 54.0°F12.2°C 38.1°F3.4°C 55% 7.0 mph S11.3 kmh S 10.1 mph16.3 kmh 25.07 in849.0 mb 0.00 in0.0 mm 0.00 in/hr0.0 mm/hr 0.00 in0.0 mm
05:46 AM 54.7°F12.6°C 36.0°F2.2°C 49% 8.0 mph S12.9 kmh S 10.5 mph16.9 kmh 25.04 in848.0 mb 0.00 in0.0 mm 0.00 in/hr0.0 mm/hr 0.00 in0.0 mm
05:41 AM 55.2°F12.9°C 35.4°F1.9°C 47% 9.0 mph S14.5 kmh S 12.5 mph20.1 kmh 25.04 in848.0 mb 0.00 in0.0 mm 0.00 in/hr0.0 mm/hr 0.00 in0.0 mm
05:36 AM 55.8°F13.2°C 34.7°F1.5°C 45% 7.0 mph SSW11.3 kmh SSW 13.0 mph20.9 kmh 25.04 in848.0 mb 0.00 in0.0 mm 0.00 in/hr0.0 mm/hr 0.00 in0.0 mm
05:31 AM 56.3°F13.5°C 33.4°F0.8°C 42% 4.0 mph SW6.4 kmh SW 11.6 mph18.7 kmh 25.04 in848.0 mb 0.00 in0.0 mm 0.00 in/hr0.0 mm/hr 0.00 in0.0 mm
05:26 AM 56.7°F13.7°C 32.5°F0.3°C 40% 2.0 mph SW3.2 kmh SW 4.0 mph6.4 kmh 25.04 in848.0 mb 0.00 in0.0 mm 0.00 in/hr0.0 mm/hr 0.00 in0.0 mm
05:21 AM 57.0°F13.9°C 31.6°F-0.2°C 38% 4.0 mph SW6.4 kmh SW 5.4 mph8.7 kmh 25.04 in848.0 mb 0.00 in0.0 mm 0.00 in/hr0.0 mm/hr 0.00 in0.0 mm
05:16 AM 57.4°F14.1°C 31.3°F-0.4°C 37% 5.0 mph SW8.0 kmh SW 6.7 mph10.8 kmh 25.04 in848.0 mb 0.00 in0.0 mm 0.00 in/hr0.0 mm/hr 0.00 in0.0 mm
05:11 AM 57.2°F14.0°C 30.6°F-0.8°C 36% 5.0 mph SW8.0 kmh SW 7.8 mph12.6 kmh 25.04 in848.0 mb 0.00 in0.0 mm 0.00 in/hr0.0 mm/hr 0.00 in0.0 mm
05:06 AM 57.0°F13.9°C 32.4°F0.2°C 39% 5.0 mph SW8.0 kmh SW 6.9 mph11.1 kmh 25.04 in848.0 mb 0.00 in0.0 mm 0.00 in/hr0.0 mm/hr 0.00 in0.0 mm
05:01 AM 57.2°F14.0°C 30.6°F-0.8°C 36% 6.0 mph WSW9.7 kmh WSW 7.8 mph12.6 kmh 25.04 in848.0 mb 0.00 in0.0 mm 0.00 in/hr0.0 mm/hr 0.00 in0.0 mm
04:56 AM 57.7°F14.3°C 29.5°F-1.4°C 34% 5.0 mph SW8.0 kmh SW 8.7 mph14.0 kmh 25.04 in848.0 mb 0.00 in0.0 mm 0.00 in/hr0.0 mm/hr 0.00 in0.0 mm
04:51 AM 58.5°F14.7°C 26.2°F-3.2°C 29% 4.0 mph S6.4 kmh S 6.9 mph11.1 kmh 25.04 in848.0 mb 0.00 in0.0 mm 0.00 in/hr0.0 mm/hr 0.00 in0.0 mm
04:46 AM 59.0°F15.0°C 25.2°F-3.8°C 27% 5.0 mph SSE8.0 kmh SSE 6.3 mph10.1 kmh 25.04 in848.0 mb 0.00 in0.0 mm 0.00 in/hr0.0 mm/hr 0.00 in0.0 mm
04:41 AM 59.2°F15.1°C 24.3°F-4.3°C 26% 5.0 mph SSE8.0 kmh SSE 8.7 mph14.0 kmh 25.04 in848.0 mb 0.00 in0.0 mm 0.00 in/hr0.0 mm/hr 0.00 in0.0 mm
04:36 AM 58.3°F14.6°C 24.4°F-4.2°C 27% 4.0 mph SE6.4 kmh SE 6.9 mph11.1 kmh 25.04 in848.0 mb 0.00 in0.0 mm 0.00 in/hr0.0 mm/hr 0.00 in0.0 mm
04:31 AM 57.9°F14.4°C 25.0°F-3.9°C 28% 3.0 mph SE4.8 kmh SE 5.8 mph9.3 kmh 25.04 in848.0 mb 0.00 in0.0 mm 0.00 in/hr0.0 mm/hr 0.00 in0.0 mm
04:26 AM 58.3°F14.6°C 24.4°F-4.2°C 27% 3.0 mph SE4.8 kmh SE 4.9 mph7.9 kmh 25.04 in848.0 mb 0.00 in0.0 mm 0.00 in/hr0.0 mm/hr 0.00 in0.0 mm
04:21 AM 58.5°F14.7°C 23.7°F-4.6°C 26% 4.0 mph SE6.4 kmh SE 4.9 mph7.9 kmh 25.04 in848.0 mb 0.00 in0.0 mm 0.00 in/hr0.0 mm/hr 0.00 in0.0 mm
04:16 AM 58.5°F14.7°C 23.7°F-4.6°C 26% 4.0 mph SE6.4 kmh SE 5.8 mph9.3 kmh 25.01 in846.9 mb 0.00 in0.0 mm 0.00 in/hr0.0 mm/hr 0.00 in0.0 mm
04:11 AM 58.8°F14.9°C 24.1°F-4.4°C 26% 3.0 mph S4.8 kmh S 6.7 mph10.8 kmh 25.01 in846.9 mb 0.00 in0.0 mm 0.00 in/hr0.0 mm/hr 0.00 in0.0 mm
04:06 AM 59.0°F15.0°C 23.2°F-4.9°C 25% 1.0 mph SSW1.6 kmh SSW 4.5 mph7.2 kmh 25.01 in846.9 mb 0.00 in0.0 mm 0.00 in/hr0.0 mm/hr 0.00 in0.0 mm
04:01 AM 59.0°F15.0°C 23.2°F-4.9°C 25% 2.0 mph S3.2 kmh S 4.5 mph7.2 kmh 25.04 in848.0 mb 0.00 in0.0 mm 0.00 in/hr0.0 mm/hr 0.00 in0.0 mm
03:56 AM 58.8°F14.9°C 23.0°F-5.0°C 25% 3.0 mph ESE4.8 kmh ESE 5.4 mph8.7 kmh 25.04 in848.0 mb 0.00 in0.0 mm 0.00 in/hr0.0 mm/hr 0.00 in0.0 mm
03:51 AM 59.0°F15.0°C 23.2°F-4.9°C 25% 3.0 mph NE4.8 kmh NE 4.9 mph7.9 kmh 25.04 in848.0 mb 0.00 in0.0 mm 0.00 in/hr0.0 mm/hr 0.00 in0.0 mm
03:46 AM 59.2°F15.1°C 23.4°F-4.8°C 25% 2.0 mph NE3.2 kmh NE 5.4 mph8.7 kmh 25.01 in846.9 mb 0.00 in0.0 mm 0.00 in/hr0.0 mm/hr 0.00 in0.0 mm
03:41 AM 59.2°F15.1°C 23.4°F-4.8°C 25% 1.0 mph NE1.6 kmh NE 4.5 mph7.2 kmh 25.01 in846.9 mb 0.00 in0.0 mm 0.00 in/hr0.0 mm/hr 0.00 in0.0 mm
03:36 AM 58.6°F14.8°C 23.0°F-5.0°C 25% 2.0 mph NE3.2 kmh NE 4.5 mph7.2 kmh 25.01 in846.9 mb 0.00 in0.0 mm 0.00 in/hr0.0 mm/hr 0.00 in0.0 mm
03:31 AM 58.6°F14.8°C 23.0°F-5.0°C 25% 2.0 mph NE3.2 kmh NE 6.3 mph10.1 kmh 25.01 in846.9 mb 0.00 in0.0 mm 0.00 in/hr0.0 mm/hr 0.00 in0.0 mm
03:26 AM 58.8°F14.9°C 23.0°F-5.0°C 25% 2.0 mph NE3.2 kmh NE 3.6 mph5.8 kmh 25.01 in846.9 mb 0.00 in0.0 mm 0.00 in/hr0.0 mm/hr 0.00 in0.0 mm
03:21 AM 59.2°F15.1°C 23.4°F-4.8°C 25% 2.0 mph NE3.2 kmh NE 4.0 mph6.4 kmh 25.01 in846.9 mb 0.00 in0.0 mm 0.00 in/hr0.0 mm/hr 0.00 in0.0 mm
03:16 AM 59.4°F15.2°C 23.5°F-4.7°C 25% 1.0 mph NE1.6 kmh NE 4.0 mph6.4 kmh 25.04 in848.0 mb 0.00 in0.0 mm 0.00 in/hr0.0 mm/hr 0.00 in0.0 mm
03:11 AM 59.7°F15.4°C 22.8°F-5.1°C 24% 3.0 mph NE4.8 kmh NE 4.0 mph6.4 kmh 25.04 in848.0 mb 0.00 in0.0 mm 0.00 in/hr0.0 mm/hr 0.00 in0.0 mm
03:06 AM 59.7°F15.4°C 22.8°F-5.1°C 24% 3.0 mph SE4.8 kmh SE 6.7 mph10.8 kmh 25.04 in848.0 mb 0.00 in0.0 mm 0.00 in/hr0.0 mm/hr 0.00 in0.0 mm
03:01 AM 59.9°F15.5°C 23.0°F-5.0°C 24% 2.0 mph SSE3.2 kmh SSE 4.9 mph7.9 kmh 25.01 in846.9 mb 0.00 in0.0 mm 0.00 in/hr0.0 mm/hr 0.00 in0.0 mm
02:56 AM 60.3°F15.7°C 23.4°F-4.8°C 24% 3.0 mph SSE4.8 kmh SSE 6.9 mph11.1 kmh 25.01 in846.9 mb 0.00 in0.0 mm 0.00 in/hr0.0 mm/hr 0.00 in0.0 mm
02:51 AM 60.4°F15.8°C 23.5°F-4.7°C 24% 2.0 mph SE3.2 kmh SE 5.8 mph9.3 kmh 25.01 in846.9 mb 0.00 in0.0 mm 0.00 in/hr0.0 mm/hr 0.00 in0.0 mm
02:46 AM 60.6°F15.9°C 23.7°F-4.6°C 24% 1.0 mph SE1.6 kmh SE 3.6 mph5.8 kmh 25.01 in846.9 mb 0.00 in0.0 mm 0.00 in/hr0.0 mm/hr 0.00 in0.0 mm
02:41 AM 60.6°F15.9°C 20.5°F-6.4°C 21% Calm Calm 2.7 mph4.3 kmh 25.01 in846.9 mb 0.00 in0.0 mm 0.00 in/hr0.0 mm/hr 0.00 in0.0 mm
02:36 AM 61.0°F16.1°C 20.8°F-6.2°C 21% 2.0 mph SE3.2 kmh SE 5.8 mph9.3 kmh 25.01 in846.9 mb 0.00 in0.0 mm 0.00 in/hr0.0 mm/hr 0.00 in0.0 mm
02:31 AM 61.0°F16.1°C 20.8°F-6.2°C 21% 4.0 mph SE6.4 kmh SE 6.3 mph10.1 kmh 25.01 in846.9 mb 0.00 in0.0 mm 0.00 in/hr0.0 mm/hr 0.00 in0.0 mm
02:26 AM 60.8°F16.0°C 20.7°F-6.3°C 21% 6.0 mph S9.7 kmh S 6.9 mph11.1 kmh 25.01 in846.9 mb 0.00 in0.0 mm 0.00 in/hr0.0 mm/hr 0.00 in0.0 mm
02:21 AM 60.3°F15.7°C 23.4°F-4.8°C 24% 6.0 mph S9.7 kmh S 9.2 mph14.8 kmh 25.01 in846.9 mb 0.00 in0.0 mm 0.00 in/hr0.0 mm/hr 0.00 in0.0 mm
02:16 AM 60.3°F15.7°C 20.1°F-6.6°C 21% 6.0 mph S9.7 kmh S 9.6 mph15.4 kmh 25.01 in846.9 mb 0.00 in0.0 mm 0.00 in/hr0.0 mm/hr 0.00 in0.0 mm
02:11 AM 60.4°F15.8°C 18.0°F-7.8°C 19% 5.0 mph S8.0 kmh S 8.3 mph13.4 kmh 25.01 in846.9 mb 0.00 in0.0 mm 0.00 in/hr0.0 mm/hr 0.00 in0.0 mm
02:06 AM 60.8°F16.0°C 18.3°F-7.6°C 19% 5.0 mph S8.0 kmh S 7.8 mph12.6 kmh 25.01 in846.9 mb 0.00 in0.0 mm 0.00 in/hr0.0 mm/hr 0.00 in0.0 mm
02:01 AM 61.2°F16.2°C 14.7°F-9.6°C 16% 6.0 mph S9.7 kmh S 7.8 mph12.6 kmh 25.01 in846.9 mb 0.00 in0.0 mm 0.00 in/hr0.0 mm/hr 0.00 in0.0 mm
01:56 AM 61.3°F16.3°C 14.7°F-9.6°C 16% 7.0 mph SSW11.3 kmh SSW 9.6 mph15.4 kmh 25.01 in846.9 mb 0.00 in0.0 mm 0.00 in/hr0.0 mm/hr 0.00 in0.0 mm
01:51 AM 61.5°F16.4°C 11.8°F-11.2°C 14% 6.0 mph S9.7 kmh S 9.2 mph14.8 kmh 25.01 in846.9 mb 0.00 in0.0 mm 0.00 in/hr0.0 mm/hr 0.00 in0.0 mm
01:46 AM 62.2°F16.8°C 10.8°F-11.8°C 13% 7.0 mph SE11.3 kmh SE 9.2 mph14.8 kmh 25.01 in846.9 mb 0.00 in0.0 mm 0.00 in/hr0.0 mm/hr 0.00 in0.0 mm
01:41 AM 62.2°F16.8°C 10.8°F-11.8°C 13% 7.0 mph SSE11.3 kmh SSE 12.1 mph19.5 kmh 25.01 in846.9 mb 0.00 in0.0 mm 0.00 in/hr0.0 mm/hr 0.00 in0.0 mm
01:36 AM 61.7°F16.5°C 12.0°F-11.1°C 14% 6.0 mph S9.7 kmh S 8.3 mph13.4 kmh 25.01 in846.9 mb 0.00 in0.0 mm 0.00 in/hr0.0 mm/hr 0.00 in0.0 mm
01:31 AM 61.9°F16.6°C 10.6°F-11.9°C 13% 6.0 mph SSW9.7 kmh SSW 7.4 mph11.9 kmh 25.01 in846.9 mb 0.00 in0.0 mm 0.00 in/hr0.0 mm/hr 0.00 in0.0 mm
01:26 AM 61.9°F16.6°C 6.8°F-14.0°C 11% 6.0 mph SW9.7 kmh SW 8.7 mph14.0 kmh 25.01 in846.9 mb 0.00 in0.0 mm 0.00 in/hr0.0 mm/hr 0.00 in0.0 mm
01:21 AM 61.7°F16.5°C 6.6°F-14.1°C 11% 7.0 mph WSW11.3 kmh WSW 10.1 mph16.3 kmh 25.01 in846.9 mb 0.00 in0.0 mm 0.00 in/hr0.0 mm/hr 0.00 in0.0 mm
01:16 AM 62.1°F16.7°C 7.0°F-13.9°C 11% 7.0 mph SW11.3 kmh SW 10.5 mph16.9 kmh 25.01 in846.9 mb 0.00 in0.0 mm 0.00 in/hr0.0 mm/hr 0.00 in0.0 mm
01:11 AM 63.0°F17.2°C 7.7°F-13.5°C 11% 6.0 mph S9.7 kmh S 9.2 mph14.8 kmh 25.01 in846.9 mb 0.00 in0.0 mm 0.00 in/hr0.0 mm/hr 0.00 in0.0 mm
01:06 AM 63.1°F17.3°C 7.9°F-13.4°C 11% 6.0 mph E9.7 kmh E 10.1 mph16.3 kmh 25.01 in846.9 mb 0.00 in0.0 mm 0.00 in/hr0.0 mm/hr 0.00 in0.0 mm
01:01 AM 63.3°F17.4°C 7.9°F-13.4°C 11% 7.0 mph E11.3 kmh E 12.1 mph19.5 kmh 25.01 in846.9 mb 0.00 in0.0 mm 0.00 in/hr0.0 mm/hr 0.00 in0.0 mm
12:56 AM 63.5°F17.5°C -5537.2°C - 9.0 mph ESE14.5 kmh ESE 15.9 mph25.6 kmh 25.01 in846.9 mb 0.00 in0.0 mm 0.00 in/hr0.0 mm/hr 0.00 in0.0 mm
12:51 AM 63.5°F17.5°C -5537.2°C - 11.0 mph ESE17.7 kmh ESE 21.5 mph34.6 kmh 25.01 in846.9 mb 0.00 in0.0 mm 0.00 in/hr0.0 mm/hr 0.00 in0.0 mm
12:46 AM 63.7°F17.6°C -5537.2°C - 11.0 mph ESE17.7 kmh ESE 17.7 mph28.5 kmh 25.01 in846.9 mb 0.00 in0.0 mm 0.00 in/hr0.0 mm/hr 0.00 in0.0 mm
12:41 AM 63.9°F17.7°C -5537.2°C - 11.0 mph ESE17.7 kmh ESE 19.0 mph30.6 kmh 25.01 in846.9 mb 0.00 in0.0 mm 0.00 in/hr0.0 mm/hr 0.00 in0.0 mm
12:36 AM 63.9°F17.7°C -5537.2°C - 12.0 mph ESE19.3 kmh ESE 19.5 mph31.4 kmh 25.01 in846.9 mb 0.00 in0.0 mm 0.00 in/hr0.0 mm/hr 0.00 in0.0 mm
12:31 AM 63.9°F17.7°C -5537.2°C - 11.0 mph ESE17.7 kmh ESE 21.0 mph33.8 kmh 25.01 in846.9 mb 0.00 in0.0 mm 0.00 in/hr0.0 mm/hr 0.00 in0.0 mm
12:26 AM 63.9°F17.7°C -5537.2°C - 10.0 mph ESE16.1 kmh ESE 16.3 mph26.2 kmh 25.01 in846.9 mb 0.00 in0.0 mm 0.00 in/hr0.0 mm/hr 0.00 in0.0 mm
12:21 AM 63.9°F17.7°C -5537.2°C - 9.0 mph ESE14.5 kmh ESE 15.9 mph25.6 kmh 25.01 in846.9 mb 0.00 in0.0 mm 0.00 in/hr0.0 mm/hr 0.00 in0.0 mm
12:16 AM 63.7°F17.6°C -5537.2°C - 9.0 mph ESE14.5 kmh ESE 13.0 mph20.9 kmh 24.98 in845.9 mb 0.00 in0.0 mm 0.00 in/hr0.0 mm/hr 0.00 in0.0 mm
12:10 AM 64.0°F17.8°C -5537.2°C - 8.0 mph ESE12.9 kmh ESE 16.3 mph26.2 kmh 24.98 in845.9 mb 0.00 in0.0 mm 0.00 in/hr0.0 mm/hr 0.00 in0.0 mm
12:05 AM 63.9°F17.7°C -5537.2°C - 8.0 mph SE12.9 kmh SE 11.6 mph18.7 kmh 24.98 in845.9 mb 0.00 in0.0 mm 0.00 in/hr0.0 mm/hr 0.00 in0.0 mm
12:00 AM 64.0°F17.8°C -5537.2°C - 11.0 mph SSE17.7 kmh SSE 14.3 mph23.0 kmh 24.98 in845.9 mb 0.00 in0.0 mm 0.00 in/hr0.0 mm/hr 0.00 in0.0 mm
WeatherForYou.com, LLC is not responsible for any damages or problems caused by this service. Current weather conditions are obtained from the closest station including government and personal stations which may have varying degrees of accuracy. Weather forecasts are derived from the NOAA NDFD and obtained through HAMweather's Aeris Weather API. Like all things, this site belongs to Jesus Christ... He just trusts me to maintain it. If you have any questions or comments email webmaster@weatherforyou.com

Copyright © 2014, WeatherForYou.com LLC. All rights reserved.